sensor_id;sensor_type;location;lat;lon;timestamp;pressure;altitude;pressure_sealevel;temperature
71630;BMP280;59479;51.902;8.212;2022-09-13T00:01:55;100449.41;;;19.92
71630;BMP280;59479;51.902;8.212;2022-09-13T00:04:20;100447.03;;;19.88
71630;BMP280;59479;51.902;8.212;2022-09-13T00:06:45;100439.13;;;19.94
71630;BMP280;59479;51.902;8.212;2022-09-13T00:09:11;100437.38;;;19.96
71630;BMP280;59479;51.902;8.212;2022-09-13T00:11:36;100445.03;;;19.96
71630;BMP280;59479;51.902;8.212;2022-09-13T00:14:01;100428.09;;;19.93
71630;BMP280;59479;51.902;8.212;2022-09-13T00:16:28;100436.28;;;20.01
71630;BMP280;59479;51.902;8.212;2022-09-13T00:18:54;100412.34;;;20.04
71630;BMP280;59479;51.902;8.212;2022-09-13T00:21:21;100430.22;;;20.04
71630;BMP280;59479;51.902;8.212;2022-09-13T00:23:49;100419.25;;;20.02
71630;BMP280;59479;51.902;8.212;2022-09-13T00:26:23;100415.94;;;20.00
71630;BMP280;59479;51.902;8.212;2022-09-13T00:28:51;100419.25;;;20.02
71630;BMP280;59479;51.902;8.212;2022-09-13T00:31:17;100400.63;;;20.00
71630;BMP280;59479;51.902;8.212;2022-09-13T00:33:43;100396.22;;;20.03
71630;BMP280;59479;51.902;8.212;2022-09-13T00:36:10;100394.56;;;20.02
71630;BMP280;59479;51.902;8.212;2022-09-13T00:38:36;100395.53;;;20.00
71630;BMP280;59479;51.902;8.212;2022-09-13T00:41:06;100387.13;;;19.98
71630;BMP280;59479;51.902;8.212;2022-09-13T00:46:07;100385.50;;;19.95
71630;BMP280;59479;51.902;8.212;2022-09-13T00:48:33;100383.09;;;19.92
71630;BMP280;59479;51.902;8.212;2022-09-13T00:51:00;100379.69;;;19.92
71630;BMP280;59479;51.902;8.212;2022-09-13T00:53:32;100385.44;;;19.97
71630;BMP280;59479;51.902;8.212;2022-09-13T00:56:06;100382.72;;;20.01
71630;BMP280;59479;51.902;8.212;2022-09-13T00:58:39;100382.66;;;20.03
71630;BMP280;59479;51.902;8.212;2022-09-13T01:01:08;100376.69;;;20.02
71630;BMP280;59479;51.902;8.212;2022-09-13T01:03:35;100364.78;;;20.03
71630;BMP280;59479;51.902;8.212;2022-09-13T01:06:03;100363.00;;;20.05
71630;BMP280;59479;51.902;8.212;2022-09-13T01:08:30;100350.41;;;20.00
71630;BMP280;59479;51.902;8.212;2022-09-13T01:10:58;100359.69;;;20.03
71630;BMP280;59479;51.902;8.212;2022-09-13T01:13:32;100351.97;;;20.04
71630;BMP280;59479;51.902;8.212;2022-09-13T01:15:58;100357.84;;;20.06
71630;BMP280;59479;51.902;8.212;2022-09-13T01:18:24;100355.41;;;20.03
71630;BMP280;59479;51.902;8.212;2022-09-13T01:23:57;100351.00;;;20.07
71630;BMP280;59479;51.902;8.212;2022-09-13T01:32:18;100350.88;;;20.10
71630;BMP280;59479;51.902;8.212;2022-09-13T01:37:56;100350.81;;;20.11
71630;BMP280;59479;51.902;8.212;2022-09-13T01:43:21;100343.03;;;20.14
71630;BMP280;59479;51.902;8.212;2022-09-13T01:46:04;100340.31;;;20.17
71630;BMP280;59479;51.902;8.212;2022-09-13T01:48:40;100342.00;;;20.18
71630;BMP280;59479;51.902;8.212;2022-09-13T01:51:30;100341.94;;;20.20
71630;BMP280;59479;51.902;8.212;2022-09-13T01:54:10;100343.66;;;20.19
71630;BMP280;59479;51.902;8.212;2022-09-13T01:56:48;100353.78;;;20.21
71630;BMP280;59479;51.902;8.212;2022-09-13T01:59:20;100356.31;;;20.21
71630;BMP280;59479;51.902;8.212;2022-09-13T02:01:54;100347.97;;;20.17
71630;BMP280;59479;51.902;8.212;2022-09-13T02:04:27;100367.00;;;20.10
71630;BMP280;59479;51.902;8.212;2022-09-13T02:07:01;100361.84;;;20.12
71630;BMP280;59479;51.902;8.212;2022-09-13T02:09:31;100359.63;;;20.04
71630;BMP280;59479;51.902;8.212;2022-09-13T02:12:06;100356.09;;;20.07
71630;BMP280;59479;51.902;8.212;2022-09-13T02:14:37;100358.66;;;20.07
71630;BMP280;59479;51.902;8.212;2022-09-13T02:17:14;100367.22;;;20.06
71630;BMP280;59479;51.902;8.212;2022-09-13T02:19:49;100354.59;;;20.03
71630;BMP280;59479;51.902;8.212;2022-09-13T02:22:19;100348.09;;;19.96
71630;BMP280;59479;51.902;8.212;2022-09-13T02:24:49;100348.09;;;19.96
71630;BMP280;59479;51.902;8.212;2022-09-13T02:27:18;100350.38;;;20.02
71630;BMP280;59479;51.902;8.212;2022-09-13T02:29:46;100353.72;;;20.02
71630;BMP280;59479;51.902;8.212;2022-09-13T02:32:13;100347.06;;;20.00
71630;BMP280;59479;51.902;8.212;2022-09-13T02:34:46;100351.28;;;20.01
71630;BMP280;59479;51.902;8.212;2022-09-13T02:37:12;100355.53;;;20.00
71630;BMP280;59479;51.902;8.212;2022-09-13T02:39:46;100354.00;;;19.96
71630;BMP280;59479;51.902;8.212;2022-09-13T02:42:20;100349.84;;;19.94
71630;BMP280;59479;51.902;8.212;2022-09-13T02:44:52;100346.66;;;19.89
71630;BMP280;59479;51.902;8.212;2022-09-13T02:47:37;100352.63;;;19.89
71630;BMP280;59479;51.902;8.212;2022-09-13T02:50:23;100357.84;;;19.86
71630;BMP280;59479;51.902;8.212;2022-09-13T02:53:11;100355.44;;;19.82
71630;BMP280;59479;51.902;8.212;2022-09-13T02:58:21;100357.34;;;19.77
71630;BMP280;59479;51.902;8.212;2022-09-13T03:00:49;100361.81;;;19.72
71630;BMP280;59479;51.902;8.212;2022-09-13T03:03:15;100352.63;;;19.68
71630;BMP280;59479;51.902;8.212;2022-09-13T03:05:41;100356.97;;;19.66
71630;BMP280;59479;51.902;8.212;2022-09-13T03:08:07;100347.84;;;19.61
71630;BMP280;59479;51.902;8.212;2022-09-13T03:10:46;100339.47;;;19.57
71630;BMP280;59479;51.902;8.212;2022-09-13T03:13:35;100348.03;;;19.56
71630;BMP280;59479;51.902;8.212;2022-09-13T03:19:52;100350.16;;;19.45
71630;BMP280;59479;51.902;8.212;2022-09-13T03:22:57;100351.06;;;19.44
71630;BMP280;59479;51.902;8.212;2022-09-13T03:28:40;100340.13;;;19.42
71630;BMP280;59479;51.902;8.212;2022-09-13T03:36:46;100335.63;;;19.47
71630;BMP280;59479;51.902;8.212;2022-09-13T03:42:00;100330.19;;;19.56
71630;BMP280;59479;51.902;8.212;2022-09-13T03:44:30;100336.75;;;19.62
71630;BMP280;59479;51.902;8.212;2022-09-13T03:46:59;100335.94;;;19.61
71630;BMP280;59479;51.902;8.212;2022-09-13T03:49:25;100336.94;;;19.57
71630;BMP280;59479;51.902;8.212;2022-09-13T03:51:52;100321.72;;;19.56
71630;BMP280;59479;51.902;8.212;2022-09-13T03:54:27;100309.16;;;19.51
71630;BMP280;59479;51.902;8.212;2022-09-13T03:57:26;100308.34;;;19.51
71630;BMP280;59479;51.902;8.212;2022-09-13T03:59:53;100310.16;;;19.47
71630;BMP280;59479;51.902;8.212;2022-09-13T04:02:21;100310.94;;;19.49
71630;BMP280;59479;51.902;8.212;2022-09-13T04:04:47;100317.56;;;19.53
71630;BMP280;59479;51.902;8.212;2022-09-13T04:07:23;100318.44;;;19.52
71630;BMP280;59479;51.902;8.212;2022-09-13T04:09:49;100315.84;;;19.54
71630;BMP280;59479;51.902;8.212;2022-09-13T04:12:15;100317.50;;;19.55
71630;BMP280;59479;51.902;8.212;2022-09-13T04:14:41;100310.69;;;19.55
71630;BMP280;59479;51.902;8.212;2022-09-13T04:17:10;100323.38;;;19.57
71630;BMP280;59479;51.902;8.212;2022-09-13T04:19:36;100317.31;;;19.59
71630;BMP280;59479;51.902;8.212;2022-09-13T04:22:02;100323.25;;;19.60
71630;BMP280;59479;51.902;8.212;2022-09-13T04:24:28;100320.69;;;19.60
71630;BMP280;59479;51.902;8.212;2022-09-13T04:26:54;100332.34;;;19.65
71630;BMP280;59479;51.902;8.212;2022-09-13T04:29:25;100334.78;;;19.68
71630;BMP280;59479;51.902;8.212;2022-09-13T04:31:52;100328.81;;;19.69
71630;BMP280;59479;51.902;8.212;2022-09-13T04:34:17;100329.69;;;19.68
71630;BMP280;59479;51.902;8.212;2022-09-13T04:36:44;100322.03;;;19.68
71630;BMP280;59479;51.902;8.212;2022-09-13T04:39:10;100325.63;;;19.64
71630;BMP280;59479;51.902;8.212;2022-09-13T04:41:35;100327.38;;;19.62
71630;BMP280;59479;51.902;8.212;2022-09-13T04:44:01;100317.19;;;19.62
71630;BMP280;59479;51.902;8.212;2022-09-13T04:46:27;100322.28;;;19.62
71630;BMP280;59479;51.902;8.212;2022-09-13T04:48:52;100320.56;;;19.63
71630;BMP280;59479;51.902;8.212;2022-09-13T04:51:18;100328.91;;;19.66
71630;BMP280;59479;51.902;8.212;2022-09-13T04:53:45;100329.56;;;19.71
71630;BMP280;59479;51.902;8.212;2022-09-13T04:56:11;100333.91;;;19.69
71630;BMP280;59479;51.902;8.212;2022-09-13T04:58:38;100329.28;;;19.57
71630;BMP280;59479;51.902;8.212;2022-09-13T05:01:05;100332.75;;;19.56
71630;BMP280;59479;51.902;8.212;2022-09-13T05:03:32;100329.44;;;19.54
71630;BMP280;59479;51.902;8.212;2022-09-13T05:06:09;100327.38;;;19.62
71630;BMP280;59479;51.902;8.212;2022-09-13T05:08:34;100331.78;;;19.59
71630;BMP280;59479;51.902;8.212;2022-09-13T05:11:00;100340.13;;;19.42
71630;BMP280;59479;51.902;8.212;2022-09-13T05:13:27;100335.63;;;19.47
71630;BMP280;59479;51.902;8.212;2022-09-13T05:16:01;100355.22;;;19.47
71630;BMP280;59479;51.902;8.212;2022-09-13T05:18:31;100346.91;;;19.42
71630;BMP280;59479;51.902;8.212;2022-09-13T05:20:58;100351.19;;;19.41
71630;BMP280;59479;51.902;8.212;2022-09-13T05:23:24;100355.22;;;19.47
71630;BMP280;59479;51.902;8.212;2022-09-13T05:25:54;100350.44;;;19.39
71630;BMP280;59479;51.902;8.212;2022-09-13T05:28:21;100353.22;;;19.34
71630;BMP280;59479;51.902;8.212;2022-09-13T05:31:01;100347.25;;;19.35
71630;BMP280;59479;51.902;8.212;2022-09-13T05:33:29;100353.16;;;19.35
71630;BMP280;59479;51.902;8.212;2022-09-13T05:35:54;100344.91;;;19.29
71630;BMP280;59479;51.902;8.212;2022-09-13T05:38:20;100345.63;;;19.32
71630;BMP280;59479;51.902;8.212;2022-09-13T05:40:45;100343.06;;;19.32
71630;BMP280;59479;51.902;8.212;2022-09-13T05:43:11;100347.59;;;19.26
71630;BMP280;59479;51.902;8.212;2022-09-13T05:45:36;100339.22;;;19.22
71630;BMP280;59479;51.902;8.212;2022-09-13T05:48:02;100326.31;;;19.27
71630;BMP280;59479;51.902;8.212;2022-09-13T05:50:27;100327.34;;;19.23
71630;BMP280;59479;51.902;8.212;2022-09-13T05:52:53;100332.06;;;19.32
71630;BMP280;59479;51.902;8.212;2022-09-13T05:55:19;100335.50;;;19.31
71630;BMP280;59479;51.902;8.212;2022-09-13T05:57:46;100346.53;;;19.31
71630;BMP280;59479;51.902;8.212;2022-09-13T06:00:12;100336.28;;;19.33
71630;BMP280;59479;51.902;8.212;2022-09-13T06:02:37;100334.44;;;19.36
71630;BMP280;59479;51.902;8.212;2022-09-13T06:05:03;100336.13;;;19.36
71630;BMP280;59479;51.902;8.212;2022-09-13T06:07:28;100336.13;;;19.36
71630;BMP280;59479;51.902;8.212;2022-09-13T06:09:54;100341.13;;;19.38
71630;BMP280;59479;51.902;8.212;2022-09-13T06:12:19;100344.25;;;19.45
71630;BMP280;59479;51.902;8.212;2022-09-13T06:14:44;100350.06;;;19.48
71630;BMP280;59479;51.902;8.212;2022-09-13T06:17:10;100349.13;;;19.51
71630;BMP280;59479;51.902;8.212;2022-09-13T06:19:35;100347.22;;;19.56
71630;BMP280;59479;51.902;8.212;2022-09-13T06:22:01;100353.13;;;19.56
71630;BMP280;59479;51.902;8.212;2022-09-13T06:24:26;100357.25;;;19.59
71630;BMP280;59479;51.902;8.212;2022-09-13T06:26:51;100353.84;;;19.60
71630;BMP280;59479;51.902;8.212;2022-09-13T06:29:17;100356.38;;;19.60
71630;BMP280;59479;51.902;8.212;2022-09-13T06:31:42;100358.13;;;19.59
71630;BMP280;59479;51.902;8.212;2022-09-13T06:34:10;100360.38;;;19.45
71630;BMP280;59479;51.902;8.212;2022-09-13T06:36:37;100365.94;;;19.55
71630;BMP280;59479;51.902;8.212;2022-09-13T06:39:02;100365.81;;;19.58
71630;BMP280;59479;51.902;8.212;2022-09-13T06:41:30;100359.75;;;19.60
71630;BMP280;59479;51.902;8.212;2022-09-13T06:43:58;100355.50;;;19.61
71630;BMP280;59479;51.902;8.212;2022-09-13T06:46:24;100353.66;;;19.64
71630;BMP280;59479;51.902;8.212;2022-09-13T06:48:50;100361.16;;;19.67
71630;BMP280;59479;51.902;8.212;2022-09-13T06:51:19;100349.31;;;19.66
71630;BMP280;59479;51.902;8.212;2022-09-13T06:53:46;100346.78;;;19.66
71630;BMP280;59479;51.902;8.212;2022-09-13T06:56:14;100356.06;;;19.67
71630;BMP280;59479;51.902;8.212;2022-09-13T06:58:41;100350.84;;;19.70
71630;BMP280;59479;51.902;8.212;2022-09-13T07:01:17;100343.13;;;19.72
71630;BMP280;59479;51.902;8.212;2022-09-13T07:03:45;100348.13;;;19.75
71630;BMP280;59479;51.902;8.212;2022-09-13T07:06:15;100348.00;;;19.78
71630;BMP280;59479;51.902;8.212;2022-09-13T07:08:42;100352.06;;;19.81
71630;BMP280;59479;51.902;8.212;2022-09-13T07:11:09;100349.50;;;19.81
71630;BMP280;59479;51.902;8.212;2022-09-13T07:13:35;100345.34;;;19.79
71630;BMP280;59479;51.902;8.212;2022-09-13T07:16:02;100354.72;;;19.78
71630;BMP280;59479;51.902;8.212;2022-09-13T07:18:28;100353.22;;;19.75
71630;BMP280;59479;51.902;8.212;2022-09-13T07:21:07;100359.94;;;19.76
71630;BMP280;59479;51.902;8.212;2022-09-13T07:23:36;100352.94;;;19.80
71630;BMP280;59479;51.902;8.212;2022-09-13T07:26:02;100351.97;;;19.84
71630;BMP280;59479;51.902;8.212;2022-09-13T07:28:38;100357.91;;;19.85
71630;BMP280;59479;51.902;8.212;2022-09-13T07:31:06;100356.97;;;19.87
71630;BMP280;59479;51.902;8.212;2022-09-13T07:33:32;100363.00;;;19.64
71630;BMP280;59479;51.902;8.212;2022-09-13T07:35:58;100369.81;;;19.84
71630;BMP280;59479;51.902;8.212;2022-09-13T07:38:25;100367.06;;;19.89
71630;BMP280;59479;51.902;8.212;2022-09-13T07:40:57;100373.19;;;19.85
71630;BMP280;59479;51.902;8.212;2022-09-13T07:43:24;100371.34;;;19.88
71630;BMP280;59479;51.902;8.212;2022-09-13T07:45:57;100362.03;;;20.07
71630;BMP280;59479;51.902;8.212;2022-09-13T07:48:22;100360.63;;;20.00
71630;BMP280;59479;51.902;8.212;2022-09-13T07:51:24;100357.06;;;20.04
71630;BMP280;59479;51.902;8.212;2022-09-13T07:53:51;100366.00;;;20.14
71630;BMP280;59479;51.902;8.212;2022-09-13T07:56:20;100356.44;;;20.19
71630;BMP280;59479;51.902;8.212;2022-09-13T07:58:48;100356.53;;;20.36
71630;BMP280;59479;51.902;8.212;2022-09-13T08:01:21;100355.28;;;20.44
71630;BMP280;59479;51.902;8.212;2022-09-13T08:03:55;100347.00;;;20.39
71630;BMP280;59479;51.902;8.212;2022-09-13T08:06:21;100357.16;;;20.41
71630;BMP280;59479;51.902;8.212;2022-09-13T08:08:47;100363.06;;;20.41
71630;BMP280;59479;51.902;8.212;2022-09-13T08:11:18;100368.25;;;20.58
71630;BMP280;59479;51.902;8.212;2022-09-13T08:13:47;100370.22;;;20.71
71630;BMP280;59479;51.902;8.212;2022-09-13T08:16:13;100370.91;;;20.75
71630;BMP280;59479;51.902;8.212;2022-09-13T08:18:43;100380.09;;;20.79
71630;BMP280;59479;51.902;8.212;2022-09-13T08:21:09;100373.97;;;20.83
71630;BMP280;59479;51.902;8.212;2022-09-13T08:23:34;100379.41;;;20.94
71630;BMP280;59479;51.902;8.212;2022-09-13T08:26:00;100381.06;;;20.95
71630;BMP280;59479;51.902;8.212;2022-09-13T08:28:27;100378.56;;;21.11
71630;BMP280;59479;51.902;8.212;2022-09-13T08:30:52;100379.81;;;21.03
71630;BMP280;59479;51.902;8.212;2022-09-13T08:33:17;100386.22;;;21.11
71630;BMP280;59479;51.902;8.212;2022-09-13T08:35:50;100390.03;;;21.21
71630;BMP280;59479;51.902;8.212;2022-09-13T08:38:17;100397.69;;;21.21
71630;BMP280;59479;51.902;8.212;2022-09-13T08:40:47;100398.31;;;21.26
71630;BMP280;59479;51.902;8.212;2022-09-13T08:45:49;100402.84;;;21.38
71630;BMP280;59479;51.902;8.212;2022-09-13T08:48:19;100402.97;;;21.35
71630;BMP280;59479;51.902;8.212;2022-09-13T08:50:47;100399.53;;;21.36
71630;BMP280;59479;51.902;8.212;2022-09-13T08:53:21;100399.66;;;21.33
71630;BMP280;59479;51.902;8.212;2022-09-13T09:01:06;100393.41;;;21.57
71630;BMP280;59479;51.902;8.212;2022-09-13T09:03:48;100397.25;;;21.65
71630;BMP280;59479;51.902;8.212;2022-09-13T09:06:18;100384.19;;;21.71
71630;BMP280;59479;51.902;8.212;2022-09-13T09:08:51;100380.03;;;21.69
71630;BMP280;59479;51.902;8.212;2022-09-13T09:11:40;100392.53;;;21.75
71630;BMP280;59479;51.902;8.212;2022-09-13T09:14:18;100390.44;;;21.83
71630;BMP280;59479;51.902;8.212;2022-09-13T09:16:47;100389.50;;;21.84
71630;BMP280;59479;51.902;8.212;2022-09-13T09:21:48;100382.16;;;21.78
71630;BMP280;59479;51.902;8.212;2022-09-13T09:24:19;100388.84;;;21.80
71630;BMP280;59479;51.902;8.212;2022-09-13T09:26:45;100378.53;;;21.82
71630;BMP280;59479;51.902;8.212;2022-09-13T09:37:22;100389.97;;;21.92
71630;BMP280;59479;51.902;8.212;2022-09-13T09:39:52;100382.53;;;22.04
71630;BMP280;59479;51.902;8.212;2022-09-13T09:42:20;100385.09;;;22.04
71630;BMP280;59479;51.902;8.212;2022-09-13T09:44:52;100395.47;;;22.01
71630;BMP280;59479;51.902;8.212;2022-09-13T09:47:24;100394.72;;;22.16
71630;BMP280;59479;51.902;8.212;2022-09-13T09:55:14;100382.28;;;22.08
71630;BMP280;59479;51.902;8.212;2022-09-13T09:57:58;100385.03;;;22.22
71630;BMP280;59479;51.902;8.212;2022-09-13T10:00:30;100390.88;;;22.07
71630;BMP280;59479;51.902;8.212;2022-09-13T10:02:59;100399.91;;;22.14
71630;BMP280;59479;51.902;8.212;2022-09-13T10:05:26;100391.31;;;21.98
71630;BMP280;59479;51.902;8.212;2022-09-13T10:07:56;100391.31;;;22.15
71630;BMP280;59479;51.902;8.212;2022-09-13T10:10:24;100387.59;;;22.22
71630;BMP280;59479;51.902;8.212;2022-09-13T10:12:52;100383.41;;;22.36
71630;BMP280;59479;51.902;8.212;2022-09-13T10:15:20;100379.56;;;22.28
71630;BMP280;59479;51.902;8.212;2022-09-13T10:18:15;100376.88;;;22.31
71630;BMP280;59479;51.902;8.212;2022-09-13T10:20:42;100377.75;;;22.30
71630;BMP280;59479;51.902;8.212;2022-09-13T10:23:23;100380.75;;;22.38
71630;BMP280;59479;51.902;8.212;2022-09-13T10:26:03;100385.25;;;22.50
71630;BMP280;59479;51.902;8.212;2022-09-13T10:28:55;100383.50;;;22.50
71630;BMP280;59479;51.902;8.212;2022-09-13T10:31:27;100374.34;;;22.62
71630;BMP280;59479;51.902;8.212;2022-09-13T10:33:59;100375.81;;;22.50
71630;BMP280;59479;51.902;8.212;2022-09-13T10:36:28;100367.97;;;22.53
71630;BMP280;59479;51.902;8.212;2022-09-13T10:39:05;100364.09;;;22.62
71630;BMP280;59479;51.902;8.212;2022-09-13T10:41:36;100375.88;;;22.66
71630;BMP280;59479;51.902;8.212;2022-09-13T10:44:05;100377.19;;;22.73
71630;BMP280;59479;51.902;8.212;2022-09-13T10:46:34;100380.72;;;22.70
71630;BMP280;59479;51.902;8.212;2022-09-13T10:49:00;100378.44;;;22.66
71630;BMP280;59479;51.902;8.212;2022-09-13T10:56:41;100377.19;;;22.73
71630;BMP280;59479;51.902;8.212;2022-09-13T11:08:10;100378.53;;;22.95
71630;BMP280;59479;51.902;8.212;2022-09-13T11:21:25;100379.78;;;23.03
71630;BMP280;59479;51.902;8.212;2022-09-13T11:24:09;100376.56;;;23.00
71630;BMP280;59479;51.902;8.212;2022-09-13T11:29:26;100371.94;;;23.06
71630;BMP280;59479;51.902;8.212;2022-09-13T11:32:16;100374.75;;;23.17
71630;BMP280;59479;51.902;8.212;2022-09-13T11:37:31;100372.59;;;23.10
71630;BMP280;59479;51.902;8.212;2022-09-13T11:40:20;100378.06;;;23.19
71630;BMP280;59479;51.902;8.212;2022-09-13T11:46:08;100360.16;;;23.33
71630;BMP280;59479;51.902;8.212;2022-09-13T11:48:55;100352.44;;;23.48
71630;BMP280;59479;51.902;8.212;2022-09-13T11:57:00;100338.63;;;23.51
71630;BMP280;59479;51.902;8.212;2022-09-13T11:59:38;100341.53;;;23.59
71630;BMP280;59479;51.902;8.212;2022-09-13T12:05:19;100335.03;;;23.53
71630;BMP280;59479;51.902;8.212;2022-09-13T12:07:57;100340.06;;;23.70
71630;BMP280;59479;51.902;8.212;2022-09-13T12:13:13;100340.53;;;23.47
71630;BMP280;59479;51.902;8.212;2022-09-13T12:15:41;100341.84;;;23.54
71630;BMP280;59479;51.902;8.212;2022-09-13T12:18:45;100331.88;;;23.63
71630;BMP280;59479;51.902;8.212;2022-09-13T12:21:24;100339.91;;;23.58
71630;BMP280;59479;51.902;8.212;2022-09-13T12:24:04;100335.22;;;23.65
71630;BMP280;59479;51.902;8.212;2022-09-13T12:26:42;100333.13;;;23.72
71630;BMP280;59479;51.902;8.212;2022-09-13T12:29:38;100332.47;;;23.53
71630;BMP280;59479;51.902;8.212;2022-09-13T12:32:07;100324.38;;;23.61
71630;BMP280;59479;51.902;8.212;2022-09-13T12:34:43;100328.72;;;23.59
71630;BMP280;59479;51.902;8.212;2022-09-13T12:48:08;100309.88;;;23.89
71630;BMP280;59479;51.902;8.212;2022-09-13T12:57:09;100324.88;;;23.67
71630;BMP280;59479;51.902;8.212;2022-09-13T13:02:33;100310.66;;;23.75
71630;BMP280;59479;51.902;8.212;2022-09-13T13:05:05;100315.03;;;23.73
71630;BMP280;59479;51.902;8.212;2022-09-13T13:07:39;100316.38;;;23.80
71630;BMP280;59479;51.902;8.212;2022-09-13T13:10:23;100311.03;;;23.83
71630;BMP280;59479;51.902;8.212;2022-09-13T13:12:49;100304.81;;;23.87
71630;BMP280;59479;51.902;8.212;2022-09-13T13:17:51;100310.59;;;23.91
71630;BMP280;59479;51.902;8.212;2022-09-13T13:23:38;100307.22;;;24.04
71630;BMP280;59479;51.902;8.212;2022-09-13T13:31:38;100306.38;;;23.90
71630;BMP280;59479;51.902;8.212;2022-09-13T13:36:45;100295.66;;;24.11
71630;BMP280;59479;51.902;8.212;2022-09-13T13:41:59;100306.47;;;24.16
71630;BMP280;59479;51.902;8.212;2022-09-13T13:59:47;100299.69;;;24.43
71630;BMP280;59479;51.902;8.212;2022-09-13T14:02:17;100301.69;;;24.51
71630;BMP280;59479;51.902;8.212;2022-09-13T14:05:07;100298.03;;;24.55
71630;BMP280;59479;51.902;8.212;2022-09-13T14:10:12;100296.00;;;24.47
71630;BMP280;59479;51.902;8.212;2022-09-13T14:13:18;100294.53;;;24.56
71630;BMP280;59479;51.902;8.212;2022-09-13T14:15:58;100292.41;;;24.63
71630;BMP280;59479;51.902;8.212;2022-09-13T14:21:22;100285.91;;;24.57
71630;BMP280;59479;51.902;8.212;2022-09-13T14:23:48;100286.53;;;24.61
71630;BMP280;59479;51.902;8.212;2022-09-13T14:26:14;100279.22;;;24.81
71630;BMP280;59479;51.902;8.212;2022-09-13T14:28:40;100280.03;;;24.82
71630;BMP280;59479;51.902;8.212;2022-09-13T14:31:05;100280.19;;;24.66
71630;BMP280;59479;51.902;8.212;2022-09-13T14:33:33;100277.59;;;24.80
71630;BMP280;59479;51.902;8.212;2022-09-13T14:36:02;100275.75;;;24.82
71630;BMP280;59479;51.902;8.212;2022-09-13T14:38:30;100271.88;;;24.89
71630;BMP280;59479;51.902;8.212;2022-09-13T14:41:13;100269.38;;;24.88
71630;BMP280;59479;51.902;8.212;2022-09-13T14:43:38;100268.94;;;24.81
71630;BMP280;59479;51.902;8.212;2022-09-13T14:46:15;100260.47;;;24.93
71630;BMP280;59479;51.902;8.212;2022-09-13T14:48:51;100257.66;;;25.10
71630;BMP280;59479;51.902;8.212;2022-09-13T14:53:46;100263.50;;;24.99
71630;BMP280;59479;51.902;8.212;2022-09-13T14:56:40;100263.41;;;25.01
71630;BMP280;59479;51.902;8.212;2022-09-13T14:59:14;100264.69;;;24.94
71630;BMP280;59479;51.902;8.212;2022-09-13T15:01:42;100268.72;;;24.98
71630;BMP280;59479;51.902;8.212;2022-09-13T15:04:07;100268.72;;;24.98
71630;BMP280;59479;51.902;8.212;2022-09-13T15:06:36;100265.78;;;25.04
71630;BMP280;59479;51.902;8.212;2022-09-13T15:11:37;100265.38;;;25.10
71630;BMP280;59479;51.902;8.212;2022-09-13T15:14:28;100269.94;;;25.19
71630;BMP280;59479;51.902;8.212;2022-09-13T15:17:05;100264.13;;;25.03
71630;BMP280;59479;51.902;8.212;2022-09-13T15:19:36;100259.84;;;25.16
71630;BMP280;59479;51.902;8.212;2022-09-13T15:22:12;100256.22;;;25.18
71630;BMP280;59479;51.902;8.212;2022-09-13T15:24:42;100253.19;;;25.26
71630;BMP280;59479;51.902;8.212;2022-09-13T15:27:28;100259.97;;;25.27
71630;BMP280;59479;51.902;8.212;2022-09-13T15:29:59;100256.13;;;25.20
71630;BMP280;59479;51.902;8.212;2022-09-13T15:32:33;100267.94;;;25.10
71630;BMP280;59479;51.902;8.212;2022-09-13T15:35:00;100265.50;;;25.21
71630;BMP280;59479;51.902;8.212;2022-09-13T15:37:44;100254.81;;;25.27
71630;BMP280;59479;51.902;8.212;2022-09-13T15:40:19;100245.31;;;25.15
71630;BMP280;59479;51.902;8.212;2022-09-13T15:42:49;100254.88;;;25.13
71630;BMP280;59479;51.902;8.212;2022-09-13T15:45:17;100255.13;;;25.22
71630;BMP280;59479;51.902;8.212;2022-09-13T15:47:47;100254.72;;;25.28
71630;BMP280;59479;51.902;8.212;2022-09-13T15:50:22;100257.28;;;25.28
71630;BMP280;59479;51.902;8.212;2022-09-13T15:52:48;100255.75;;;25.26
71630;BMP280;59479;51.902;8.212;2022-09-13T15:55:14;100253.59;;;25.32
71630;BMP280;59479;51.902;8.212;2022-09-13T15:57:42;100260.91;;;25.38
71630;BMP280;59479;51.902;8.212;2022-09-13T16:00:18;100260.38;;;25.33
71630;BMP280;59479;51.902;8.212;2022-09-13T16:02:44;100261.53;;;25.29
71630;BMP280;59479;51.902;8.212;2022-09-13T16:05:10;100252.38;;;25.37
71630;BMP280;59479;51.902;8.212;2022-09-13T16:07:36;100252.88;;;25.42
71630;BMP280;59479;51.902;8.212;2022-09-13T16:10:02;100253.81;;;25.41
71630;BMP280;59479;51.902;8.212;2022-09-13T16:12:28;100244.25;;;25.43
71630;BMP280;59479;51.902;8.212;2022-09-13T16:14:53;100244.84;;;25.34
71630;BMP280;59479;51.902;8.212;2022-09-13T16:17:28;100246.03;;;25.17
71630;BMP280;59479;51.902;8.212;2022-09-13T16:19:53;100249.56;;;25.28
71630;BMP280;59479;51.902;8.212;2022-09-13T16:22:19;100249.66;;;25.27
71630;BMP280;59479;51.902;8.212;2022-09-13T16:24:45;100251.03;;;25.32
71630;BMP280;59479;51.902;8.212;2022-09-13T16:27:12;100246.56;;;25.22
71630;BMP280;59479;51.902;8.212;2022-09-13T16:29:38;100246.47;;;25.23
71630;BMP280;59479;51.902;8.212;2022-09-13T16:32:04;100254.50;;;25.19
71630;BMP280;59479;51.902;8.212;2022-09-13T16:34:30;100253.66;;;25.06
71630;BMP280;59479;51.902;8.212;2022-09-13T16:36:55;100252.41;;;25.11
71630;BMP280;59479;51.902;8.212;2022-09-13T16:39:20;100249.75;;;25.13
71630;BMP280;59479;51.902;8.212;2022-09-13T16:41:45;100249.97;;;25.22
71630;BMP280;59479;51.902;8.212;2022-09-13T16:44:11;100238.66;;;25.25
71630;BMP280;59479;51.902;8.212;2022-09-13T16:46:38;100235.56;;;25.07
71630;BMP280;59479;51.902;8.212;2022-09-13T16:49:03;100224.53;;;25.05
71630;BMP280;59479;51.902;8.212;2022-09-13T16:51:28;100225.41;;;24.92
71630;BMP280;59479;51.902;8.212;2022-09-13T16:53:54;100228.75;;;25.06
71630;BMP280;59479;51.902;8.212;2022-09-13T16:56:21;100233.69;;;24.83
71630;BMP280;59479;51.902;8.212;2022-09-13T16:58:47;100239.88;;;24.93
71630;BMP280;59479;51.902;8.212;2022-09-13T17:01:15;100237.97;;;24.96
71630;BMP280;59479;51.902;8.212;2022-09-13T17:03:41;100240.06;;;24.90